createdAt,value
2019-03-28T00:01:43.871Z,98497.45
2019-03-28T00:04:17.167Z,98489.21
2019-03-28T00:06:49.265Z,98489.80
2019-03-28T00:09:21.454Z,98492.05
2019-03-28T00:11:53.507Z,98482.88
2019-03-28T00:14:25.617Z,98482.28
2019-03-28T00:16:58.054Z,98485.43
2019-03-28T00:19:30.171Z,98481.23
2019-03-28T00:22:05.535Z,98479.98
2019-03-28T00:24:49.425Z,98485.50
2019-03-28T00:27:21.863Z,98479.29
2019-03-28T00:29:54.333Z,98484.90
2019-03-28T00:32:26.543Z,98481.45
2019-03-28T00:34:58.934Z,98479.08
2019-03-28T00:37:31.253Z,98481.98
2019-03-28T00:40:03.309Z,98488.34
2019-03-28T00:42:35.763Z,98488.01
2019-03-28T00:45:09.044Z,98493.41
2019-03-28T00:47:41.172Z,98488.58
2019-03-28T00:50:14.383Z,98483.64
2019-03-28T00:52:47.021Z,98479.31
2019-03-28T00:55:19.090Z,98484.23
2019-03-28T00:57:51.121Z,98485.97
2019-03-28T01:00:23.585Z,98483.86
2019-03-28T01:02:55.741Z,98485.58
2019-03-28T01:05:27.980Z,98481.58
2019-03-28T01:08:00.069Z,98480.24
2019-03-28T01:10:32.284Z,98485.91
2019-03-28T01:13:04.449Z,98481.19
2019-03-28T01:15:36.521Z,98482.25
2019-03-28T01:18:08.722Z,98477.68
2019-03-28T01:20:40.857Z,98476.80
2019-03-28T01:23:13.920Z,98485.70
2019-03-28T01:25:45.972Z,98485.89
2019-03-28T01:28:17.946Z,98482.93
2019-03-28T01:30:50.058Z,98487.69
2019-03-28T01:33:22.250Z,98490.09
2019-03-28T01:35:54.406Z,98488.75
2019-03-28T01:38:26.803Z,98494.27
2019-03-28T01:40:58.900Z,98487.87
2019-03-28T01:43:30.923Z,98492.26
2019-03-28T01:46:02.999Z,98487.35
2019-03-28T01:48:35.050Z,98482.72
2019-03-28T01:51:07.451Z,98477.44
2019-03-28T01:53:39.536Z,98489.76
2019-03-28T01:56:11.760Z,98485.19
2019-03-28T01:58:44.079Z,98484.30
2019-03-28T02:01:16.749Z,98476.95
2019-03-28T02:03:48.902Z,98480.58
2019-03-28T02:06:21.016Z,98480.80
2019-03-28T02:08:53.030Z,98477.37
2019-03-28T02:11:25.265Z,98478.98
2019-03-28T02:13:57.469Z,98474.05
2019-03-28T02:16:29.533Z,98482.55
2019-03-28T02:19:01.823Z,98485.05
2019-03-28T02:21:33.990Z,98477.59
2019-03-28T02:24:06.455Z,98474.59
2019-03-28T02:26:38.593Z,98472.19
2019-03-28T02:29:10.616Z,98483.87
2019-03-28T02:31:43.121Z,98484.84
2019-03-28T02:34:16.219Z,98482.51
2019-03-28T02:36:48.183Z,98481.95
2019-03-28T02:39:20.606Z,98489.68
2019-03-28T02:41:52.985Z,98476.06
2019-03-28T02:44:25.155Z,98478.78
2019-03-28T02:46:57.512Z,98473.61
2019-03-28T02:49:29.569Z,98485.45
2019-03-28T02:52:01.856Z,98485.77
2019-03-28T02:54:34.400Z,98486.00
2019-03-28T02:57:07.707Z,98484.50
2019-03-28T02:59:40.223Z,98481.22
2019-03-28T03:02:12.773Z,98477.59
2019-03-28T03:04:44.818Z,98476.77
2019-03-28T03:07:16.992Z,98472.16
2019-03-28T03:09:49.146Z,98478.43
2019-03-28T03:12:21.219Z,98473.48
2019-03-28T03:14:53.252Z,98464.86
2019-03-28T03:17:25.237Z,98471.32
2019-03-28T03:19:57.211Z,98471.27
2019-03-28T03:22:29.391Z,98474.38
2019-03-28T03:25:01.909Z,98465.97
2019-03-28T03:27:33.891Z,98470.42
2019-03-28T03:30:06.963Z,98470.20
2019-03-28T03:32:39.101Z,98468.98
2019-03-28T03:35:11.739Z,98471.94
2019-03-28T03:37:43.808Z,98473.33
2019-03-28T03:40:16.528Z,98462.88
2019-03-28T03:42:48.701Z,98470.48
2019-03-28T03:45:20.830Z,98472.10
2019-03-28T03:47:53.059Z,98469.78
2019-03-28T03:50:32.537Z,98475.29
2019-03-28T03:53:04.892Z,98475.84
2019-03-28T03:55:37.243Z,98479.62
2019-03-28T03:58:16.008Z,98477.72
2019-03-28T04:00:43.296Z,98480.95
2019-03-28T04:03:15.323Z,98483.78
2019-03-28T04:05:47.800Z,98479.39
2019-03-28T04:08:20.301Z,98483.72
2019-03-28T04:10:52.503Z,98483.55
2019-03-28T04:13:24.781Z,98483.13
2019-03-28T04:15:57.338Z,98497.62
2019-03-28T04:18:29.920Z,98496.17
2019-03-28T04:21:02.079Z,98496.63
2019-03-28T04:23:34.505Z,98502.53
2019-03-28T04:26:07.063Z,98495.41
2019-03-28T04:28:39.164Z,98507.65
2019-03-28T04:31:11.664Z,98507.03
2019-03-28T04:33:44.084Z,98502.92
2019-03-28T04:36:16.346Z,98502.27
2019-03-28T04:38:49.036Z,98507.31
2019-03-28T04:41:21.631Z,98509.64
2019-03-28T04:43:56.067Z,98506.70
2019-03-28T04:46:29.091Z,98505.36
2019-03-28T04:49:01.200Z,98507.69
2019-03-28T04:51:33.564Z,98507.69
2019-03-28T04:54:05.923Z,98506.73
2019-03-28T04:56:38.333Z,98503.69
2019-03-28T04:59:10.801Z,98508.97
2019-03-28T05:01:43.021Z,98503.52
2019-03-28T05:04:15.378Z,98509.91
2019-03-28T05:06:47.659Z,98506.41
2019-03-28T05:09:19.986Z,98509.91
2019-03-28T05:11:52.226Z,98505.58
2019-03-28T05:14:24.788Z,98505.09
2019-03-28T05:16:57.019Z,98505.97
2019-03-28T05:19:29.183Z,98506.36
2019-03-28T05:22:01.363Z,98506.36
2019-03-28T05:24:33.829Z,98500.52
2019-03-28T05:27:06.303Z,98503.21
2019-03-28T05:29:38.380Z,98502.03
2019-03-28T05:32:10.526Z,98506.72
2019-03-28T05:34:43.194Z,98495.63
2019-03-28T05:37:15.419Z,98503.15
2019-03-28T05:39:48.909Z,98508.53
2019-03-28T05:42:21.100Z,98512.27
2019-03-28T05:44:53.457Z,98506.65
2019-03-28T05:47:25.742Z,98504.66
2019-03-28T05:49:59.103Z,98512.16
2019-03-28T05:52:31.308Z,98513.22
2019-03-28T05:55:05.324Z,98517.10
2019-03-28T05:57:37.376Z,98520.37
2019-03-28T06:00:11.425Z,98524.33
2019-03-28T06:02:44.711Z,98519.76
2019-03-28T06:05:17.135Z,98516.95
2019-03-28T06:07:49.326Z,98524.64
2019-03-28T06:10:21.959Z,98530.19
2019-03-28T06:12:54.043Z,98531.63
2019-03-28T06:15:26.313Z,98529.58
2019-03-28T06:17:58.480Z,98530.63
2019-03-28T06:20:31.140Z,98535.64
2019-03-28T06:23:03.319Z,98532.73
2019-03-28T06:25:35.955Z,98529.91
2019-03-28T06:28:08.556Z,98540.42
2019-03-28T06:30:40.779Z,98531.14
2019-03-28T06:33:13.026Z,98520.52
2019-03-28T06:35:45.298Z,98520.77
2019-03-28T06:38:17.733Z,98523.69
2019-03-28T06:40:49.983Z,98520.55
2019-03-28T06:43:22.457Z,98521.73
2019-03-28T06:45:54.670Z,98517.97
2019-03-28T06:48:26.757Z,98520.64
2019-03-28T06:50:59.128Z,98518.81
2019-03-28T06:53:32.575Z,98522.17
2019-03-28T06:56:04.748Z,98519.09
2019-03-28T06:58:36.908Z,98521.36
2019-03-28T07:01:09.082Z,98519.80
2019-03-28T07:03:41.346Z,98511.12
2019-03-28T07:06:14.524Z,98513.25
2019-03-28T07:08:46.923Z,98514.77
2019-03-28T07:11:19.217Z,98518.62
2019-03-28T07:13:51.473Z,98525.52
2019-03-28T07:16:23.727Z,98520.90
2019-03-28T07:18:55.962Z,98517.58
2019-03-28T07:21:28.157Z,98517.99
2019-03-28T07:24:00.697Z,98534.41
2019-03-28T07:26:33.037Z,98534.16
2019-03-28T07:29:05.260Z,98534.88
2019-03-28T07:31:37.434Z,98535.00
2019-03-28T07:34:09.660Z,98545.14
2019-03-28T07:36:41.819Z,98540.69
2019-03-28T07:39:14.492Z,98536.17
2019-03-28T07:41:46.823Z,98538.99
2019-03-28T07:44:19.009Z,98542.77
2019-03-28T07:46:51.183Z,98541.20
2019-03-28T07:49:23.693Z,98533.77
2019-03-28T07:51:56.287Z,98521.92
2019-03-28T07:54:28.602Z,98517.19
2019-03-28T07:57:00.900Z,98515.66
2019-03-28T07:59:33.148Z,98514.05
2019-03-28T08:02:05.533Z,98517.03
2019-03-28T08:04:38.034Z,98517.53
2019-03-28T08:07:10.373Z,98522.16
2019-03-28T08:09:42.732Z,98518.42
2019-03-28T08:12:22.453Z,98516.59
2019-03-28T08:14:49.505Z,98521.00
2019-03-28T08:17:21.806Z,98511.77
2019-03-28T08:19:54.061Z,98520.05
2019-03-28T08:22:29.512Z,98513.12
2019-03-28T08:25:00.501Z,98520.38
2019-03-28T08:27:32.682Z,98517.03
2019-03-28T08:30:17.584Z,98520.43
2019-03-28T08:32:40.074Z,98518.52
2019-03-28T08:35:13.007Z,98524.38
2019-03-28T08:37:45.561Z,98516.56
2019-03-28T08:40:40.173Z,98509.26
2019-03-28T08:43:13.464Z,98516.70
2019-03-28T08:45:45.966Z,98519.16
2019-03-28T08:48:18.142Z,98524.92
2019-03-28T08:50:50.303Z,98525.09
2019-03-28T08:53:22.653Z,98524.41
2019-03-28T08:55:55.119Z,98524.67
2019-03-28T08:58:27.384Z,98528.63
2019-03-28T09:00:59.648Z,98525.31
2019-03-28T09:03:32.289Z,98526.08
2019-03-28T09:06:04.519Z,98528.06
2019-03-28T09:08:36.852Z,98532.41
2019-03-28T09:11:09.124Z,98528.48
2019-03-28T09:13:41.987Z,98526.30
2019-03-28T09:16:14.309Z,98525.59
2019-03-28T09:18:46.477Z,98521.56
2019-03-28T09:21:18.569Z,98521.30
2019-03-28T09:23:52.219Z,98520.88
2019-03-28T09:26:24.389Z,98518.78
2019-03-28T09:28:56.955Z,98506.25
2019-03-28T09:31:29.291Z,98510.94
2019-03-28T09:34:01.887Z,98512.67
2019-03-28T09:36:34.195Z,98508.38
2019-03-28T09:39:10.357Z,98512.52
2019-03-28T09:41:42.629Z,98513.16
2019-03-28T09:44:15.440Z,98506.20
2019-03-28T09:46:48.240Z,98509.97
2019-03-28T09:49:20.446Z,98508.55
2019-03-28T09:51:52.718Z,98509.45
2019-03-28T09:54:25.358Z,98511.73
2019-03-28T09:56:57.614Z,98504.50
2019-03-28T09:59:29.950Z,98498.02
2019-03-28T10:02:02.729Z,98504.98
2019-03-28T10:04:35.288Z,98506.70
2019-03-28T10:07:07.832Z,98502.63
2019-03-28T10:09:40.243Z,98504.52
2019-03-28T10:12:12.494Z,98505.08
2019-03-28T10:14:44.988Z,98504.69
2019-03-28T10:17:17.357Z,98503.97
2019-03-28T10:19:49.838Z,98497.38
2019-03-28T10:22:22.577Z,98498.70
2019-03-28T10:24:54.854Z,98489.88
2019-03-28T10:27:27.036Z,98485.02
2019-03-28T10:29:59.197Z,98487.47
2019-03-28T10:32:32.491Z,98487.71
2019-03-28T10:35:07.039Z,98478.29
2019-03-28T10:37:39.834Z,98480.18
2019-03-28T10:40:12.320Z,98480.30
2019-03-28T10:42:45.287Z,98483.12
2019-03-28T10:45:17.737Z,98481.48
2019-03-28T10:47:49.964Z,98480.97
2019-03-28T10:50:22.518Z,98475.19
2019-03-28T10:52:54.749Z,98481.61
2019-03-28T10:55:27.040Z,98481.88
2019-03-28T10:57:59.259Z,98481.45
2019-03-28T11:00:32.666Z,98483.49
2019-03-28T11:03:06.279Z,98483.25
2019-03-28T11:05:38.889Z,98477.21
2019-03-28T11:08:11.173Z,98478.05
2019-03-28T11:10:43.721Z,98473.94
2019-03-28T11:13:16.004Z,98474.89
2019-03-28T11:15:48.287Z,98480.47
2019-03-28T11:18:20.563Z,98469.66
2019-03-28T11:20:53.058Z,98476.59
2019-03-28T11:23:25.258Z,98475.72
2019-03-28T11:25:57.600Z,98471.25
2019-03-28T11:28:29.930Z,98471.41
2019-03-28T11:31:02.148Z,98469.13
2019-03-28T11:33:34.600Z,98469.03
2019-03-28T11:36:06.857Z,98475.58
2019-03-28T11:38:39.265Z,98475.09
2019-03-28T11:41:12.535Z,98482.11
2019-03-28T11:43:45.527Z,98481.66
2019-03-28T11:46:18.252Z,98476.66
2019-03-28T11:48:50.873Z,98475.71
2019-03-28T11:51:24.882Z,98475.66
2019-03-28T11:53:57.102Z,98482.16
2019-03-28T11:56:29.251Z,98475.56
2019-03-28T11:59:04.322Z,98474.05
2019-03-28T12:01:35.610Z,98477.95
2019-03-28T12:04:07.905Z,98481.41
2019-03-28T12:06:40.421Z,98475.61
2019-03-28T12:09:13.055Z,98468.37
2019-03-28T12:11:45.618Z,98473.51
2019-03-28T12:14:17.894Z,98472.77
2019-03-28T12:16:50.512Z,98464.80
2019-03-28T12:19:22.890Z,98463.84
2019-03-28T12:21:55.194Z,98462.67
2019-03-28T12:24:27.465Z,98467.64
2019-03-28T12:26:59.685Z,98463.77
2019-03-28T12:29:35.353Z,98457.43
2019-03-28T12:32:13.751Z,98456.13
2019-03-28T12:34:39.888Z,98463.28
2019-03-28T12:37:12.113Z,98459.39
2019-03-28T12:39:44.359Z,98457.58
2019-03-28T12:42:16.942Z,98458.39
2019-03-28T12:44:56.845Z,98451.27
2019-03-28T12:47:23.794Z,98451.61
2019-03-28T12:49:56.382Z,98451.91
2019-03-28T12:52:29.894Z,98453.06
2019-03-28T12:55:02.744Z,98448.95
2019-03-28T12:57:35.371Z,98451.92
2019-03-28T13:00:09.312Z,98443.35
2019-03-28T13:02:42.594Z,98447.67
2019-03-28T13:05:15.182Z,98441.89
2019-03-28T13:07:47.514Z,98448.81
2019-03-28T13:10:20.143Z,98439.64
2019-03-28T13:12:52.671Z,98438.11
2019-03-28T13:15:25.245Z,98446.96
2019-03-28T13:17:57.558Z,98444.32
2019-03-28T13:20:30.149Z,98451.04
2019-03-28T13:23:02.877Z,98443.73
2019-03-28T13:25:35.432Z,98448.78
2019-03-28T13:28:08.262Z,98452.70
2019-03-28T13:30:40.589Z,98442.25
2019-03-28T13:33:12.869Z,98444.66
2019-03-28T13:35:45.139Z,98438.28
2019-03-28T13:38:17.639Z,98434.22
2019-03-28T13:40:52.061Z,98434.84
2019-03-28T13:43:25.259Z,98426.03
2019-03-28T13:45:59.759Z,98429.60
2019-03-28T13:48:32.017Z,98423.47
2019-03-28T13:51:04.775Z,98427.07
2019-03-28T13:53:39.793Z,98416.23
2019-03-28T13:56:14.069Z,98416.23
2019-03-28T13:58:46.321Z,98416.09
2019-03-28T14:01:18.679Z,98420.92
2019-03-28T14:03:51.062Z,98416.89
2019-03-28T14:06:23.292Z,98406.92
2019-03-28T14:08:56.653Z,98409.33
2019-03-28T14:11:29.083Z,98410.70
2019-03-28T14:14:01.466Z,98408.36
2019-03-28T14:16:33.985Z,98400.69
2019-03-28T14:19:08.346Z,98408.05
2019-03-28T14:21:40.354Z,98414.92
2019-03-28T14:24:12.688Z,98415.00
2019-03-28T14:26:45.075Z,98412.16
2019-03-28T14:29:17.375Z,98411.45
2019-03-28T14:31:49.586Z,98413.89
2019-03-28T14:34:21.753Z,98413.48
2019-03-28T14:36:55.130Z,98415.61
2019-03-28T14:39:27.454Z,98419.05
2019-03-28T14:41:59.756Z,98413.94
2019-03-28T14:44:32.087Z,98418.13
2019-03-28T14:47:04.712Z,98412.34
2019-03-28T14:49:37.111Z,98421.69
2019-03-28T14:52:09.324Z,98412.94
2019-03-28T14:54:41.671Z,98417.63
2019-03-28T14:57:15.452Z,98419.12
2019-03-28T14:59:49.955Z,98422.38
2019-03-28T15:02:22.468Z,98426.35
2019-03-28T15:04:54.606Z,98427.06
2019-03-28T15:07:26.814Z,98420.53
2019-03-28T15:10:00.429Z,98421.64
2019-03-28T15:12:32.777Z,98424.53
2019-03-28T15:15:05.943Z,98418.98
2019-03-28T15:17:38.496Z,98412.25
2019-03-28T15:20:10.938Z,98413.41
2019-03-28T15:22:43.626Z,98408.70
2019-03-28T15:25:15.913Z,98412.81
2019-03-28T15:27:48.207Z,98417.09
2019-03-28T15:30:20.847Z,98413.63
2019-03-28T15:32:53.182Z,98417.91
2019-03-28T15:35:25.469Z,98412.99
2019-03-28T15:37:57.865Z,98414.28
2019-03-28T15:40:30.246Z,98416.23
2019-03-28T15:43:02.538Z,98409.28
2019-03-28T15:45:34.836Z,98413.95
2019-03-28T15:48:07.745Z,98413.89
2019-03-28T15:50:40.033Z,98416.08
2019-03-28T15:53:12.314Z,98408.37
2019-03-28T15:55:44.621Z,98418.55
2019-03-28T15:58:23.003Z,98409.73
2019-03-28T16:00:50.903Z,98420.56
2019-03-28T16:03:23.243Z,98415.75
2019-03-28T16:05:58.617Z,98413.13
2019-03-28T16:08:29.377Z,98414.31
2019-03-28T16:11:02.306Z,98416.61
2019-03-28T16:13:37.403Z,98411.17
2019-03-28T16:16:08.584Z,98424.16
2019-03-28T16:18:40.788Z,98418.40
2019-03-28T16:21:13.095Z,98421.43
2019-03-28T16:23:45.304Z,98423.16
2019-03-28T16:26:17.677Z,98421.48
2019-03-28T16:28:49.973Z,98418.69
2019-03-28T16:31:22.371Z,98416.95
2019-03-28T16:34:06.262Z,98420.34
2019-03-28T16:36:29.018Z,98420.00
2019-03-28T16:39:01.683Z,98420.08
2019-03-28T16:41:36.045Z,98416.73
2019-03-28T16:44:08.495Z,98421.99
2019-03-28T16:46:40.961Z,98422.06
2019-03-28T16:49:13.313Z,98428.02
2019-03-28T16:51:45.711Z,98426.60
2019-03-28T16:54:17.937Z,98424.64
2019-03-28T16:56:50.151Z,98421.06
2019-03-28T16:59:22.798Z,98423.76
2019-03-28T17:01:55.386Z,98428.72
2019-03-28T17:04:28.073Z,98437.66
2019-03-28T17:07:02.589Z,98433.05
2019-03-28T17:09:37.713Z,98431.84
2019-03-28T17:12:10.847Z,98441.97
2019-03-28T17:14:43.173Z,98441.27
2019-03-28T17:17:15.994Z,98437.31
2019-03-28T17:19:48.964Z,98440.16
2019-03-28T17:22:22.940Z,98441.52
2019-03-28T17:24:56.219Z,98443.48
2019-03-28T17:27:28.541Z,98439.14
2019-03-28T17:30:01.043Z,98448.54
2019-03-28T17:32:36.574Z,98440.41
2019-03-28T17:35:08.661Z,98451.06
2019-03-28T17:37:40.979Z,98463.02
2019-03-28T17:40:13.538Z,98451.56
2019-03-28T17:42:47.854Z,98459.81
2019-03-28T17:45:19.910Z,98462.66
2019-03-28T17:47:52.297Z,98466.94
2019-03-28T17:50:24.859Z,98465.52
2019-03-28T17:52:57.153Z,98465.46
2019-03-28T17:55:29.870Z,98471.80
2019-03-28T17:58:02.348Z,98470.76
2019-03-28T18:00:34.671Z,98474.95
2019-03-28T18:03:09.504Z,98469.18
2019-03-28T18:05:42.511Z,98473.44
2019-03-28T18:08:14.889Z,98473.84
2019-03-28T18:10:47.508Z,98471.36
2019-03-28T18:13:19.806Z,98472.05
2019-03-28T18:15:52.420Z,98475.89
2019-03-28T18:18:25.449Z,98472.80
2019-03-28T18:20:58.155Z,98479.01
2019-03-28T18:23:30.289Z,98477.08
2019-03-28T18:26:03.009Z,98487.55
2019-03-28T18:28:35.784Z,98483.83
2019-03-28T18:31:08.198Z,98481.05
2019-03-28T18:33:40.803Z,98481.32
2019-03-28T18:36:13.797Z,98482.95
2019-03-28T18:38:46.091Z,98488.08
2019-03-28T18:41:18.371Z,98485.39
2019-03-28T18:43:50.927Z,98491.34
2019-03-28T18:46:23.293Z,98484.64
2019-03-28T18:48:55.573Z,98489.91
2019-03-28T18:51:27.939Z,98502.70
2019-03-28T18:54:01.228Z,98493.34
2019-03-28T18:56:33.500Z,98500.22
2019-03-28T18:59:06.154Z,98494.69
2019-03-28T19:01:38.368Z,98497.75
2019-03-28T19:04:11.139Z,98501.66
2019-03-28T19:06:44.374Z,98509.16
2019-03-28T19:09:16.722Z,98509.86
2019-03-28T19:11:48.927Z,98518.89
2019-03-28T19:14:21.451Z,98513.26
2019-03-28T19:16:53.724Z,98520.89
2019-03-28T19:19:38.596Z,98522.04
2019-03-28T19:22:00.045Z,98518.51
2019-03-28T19:24:32.672Z,98526.52
2019-03-28T19:27:04.791Z,98526.34
2019-03-28T19:29:37.091Z,98528.78
2019-03-28T19:32:09.724Z,98525.47
2019-03-28T19:34:42.348Z,98533.06
2019-03-28T19:37:14.941Z,98531.30
2019-03-28T19:39:47.076Z,98529.59
2019-03-28T19:42:22.502Z,98523.19
2019-03-28T19:44:54.487Z,98524.81
2019-03-28T19:47:28.529Z,98531.93
2019-03-28T19:50:00.760Z,98527.77
2019-03-28T19:52:33.134Z,98532.00
2019-03-28T19:55:06.302Z,98535.50
2019-03-28T19:57:38.833Z,98529.70
2019-03-28T20:00:12.425Z,98532.81
2019-03-28T20:02:44.688Z,98525.00
2019-03-28T20:05:16.965Z,98524.16
2019-03-28T20:07:50.080Z,98529.05
2019-03-28T20:10:22.502Z,98528.17
2019-03-28T20:12:54.910Z,98522.56
2019-03-28T20:15:27.381Z,98527.25
2019-03-28T20:17:59.841Z,98526.70
2019-03-28T20:20:32.096Z,98523.64
2019-03-28T20:23:04.428Z,98519.84
2019-03-28T20:25:36.710Z,98518.89
2019-03-28T20:28:09.015Z,98517.83
2019-03-28T20:30:41.433Z,98522.03
2019-03-28T20:33:13.732Z,98518.98
2019-03-28T20:35:45.941Z,98522.06
2019-03-28T20:38:18.564Z,98521.11
2019-03-28T20:40:51.053Z,98519.97
2019-03-28T20:43:23.439Z,98530.20
2019-03-28T20:45:56.246Z,98524.63
2019-03-28T20:48:28.509Z,98527.70
2019-03-28T20:51:03.455Z,98528.68
2019-03-28T20:53:35.256Z,98524.02
2019-03-28T20:56:07.533Z,98532.31
2019-03-28T20:58:40.240Z,98532.23
2019-03-28T21:01:12.600Z,98527.77
2019-03-28T21:03:45.025Z,98524.80
2019-03-28T21:06:19.515Z,98528.53
2019-03-28T21:08:51.911Z,98531.27
2019-03-28T21:11:24.400Z,98533.30
2019-03-28T21:13:57.510Z,98531.28
2019-03-28T21:16:29.731Z,98534.39
2019-03-28T21:19:01.853Z,98535.03
2019-03-28T21:21:34.152Z,98537.68
2019-03-28T21:24:06.395Z,98536.22
2019-03-28T21:26:38.746Z,98542.36
2019-03-28T21:29:11.239Z,98541.69
2019-03-28T21:31:49.718Z,98543.58
2019-03-28T21:34:17.433Z,98540.20
2019-03-28T21:36:49.855Z,98529.61
2019-03-28T21:39:22.409Z,98530.70
2019-03-28T21:41:55.006Z,98527.69
2019-03-28T21:44:27.192Z,98529.53
2019-03-28T21:46:59.450Z,98530.81
2019-03-28T21:49:31.975Z,98534.16
2019-03-28T21:52:07.382Z,98530.30
2019-03-28T21:54:38.409Z,98529.69
2019-03-28T21:57:10.943Z,98534.25
2019-03-28T21:59:43.146Z,98530.67
2019-03-28T22:02:15.481Z,98526.16
2019-03-28T22:04:47.707Z,98528.91
2019-03-28T22:07:19.965Z,98522.84
2019-03-28T22:09:52.134Z,98518.69
2019-03-28T22:12:24.405Z,98519.30
2019-03-28T22:14:56.868Z,98523.27
2019-03-28T22:17:29.544Z,98517.74
2019-03-28T22:20:02.291Z,98522.53
2019-03-28T22:22:34.928Z,98519.36
2019-03-28T22:25:08.198Z,98518.97
2019-03-28T22:27:40.434Z,98516.80
2019-03-28T22:30:13.625Z,98513.75
2019-03-28T22:32:45.807Z,98514.95
2019-03-28T22:35:17.969Z,98515.59
2019-03-28T22:37:50.850Z,98509.45
2019-03-28T22:40:23.352Z,98501.28
2019-03-28T22:42:55.457Z,98504.99
2019-03-28T22:45:28.092Z,98503.23
2019-03-28T22:48:10.797Z,98497.36
2019-03-28T22:50:35.354Z,98487.34
2019-03-28T22:53:07.579Z,98492.25
2019-03-28T22:55:39.743Z,98488.22
2019-03-28T22:58:12.343Z,98491.00
2019-03-28T23:00:45.711Z,98488.48
2019-03-28T23:03:20.776Z,98485.30
2019-03-28T23:05:53.419Z,98483.84
2019-03-28T23:08:26.221Z,98486.78
2019-03-28T23:10:58.777Z,98481.17
2019-03-28T23:13:31.240Z,98485.45
2019-03-28T23:16:03.528Z,98478.72
2019-03-28T23:18:36.469Z,98472.55
2019-03-28T23:21:08.626Z,98472.63
2019-03-28T23:23:40.896Z,98474.97
2019-03-28T23:26:13.222Z,98470.36
2019-03-28T23:28:45.470Z,98480.17
2019-03-28T23:31:17.975Z,98481.50
2019-03-28T23:33:50.399Z,98473.83
2019-03-28T23:36:22.938Z,98477.77
2019-03-28T23:38:55.425Z,98478.09
2019-03-28T23:41:27.764Z,98476.98
2019-03-28T23:44:01.887Z,98472.95
2019-03-28T23:46:34.451Z,98472.88
2019-03-28T23:49:06.742Z,98468.37
2019-03-28T23:51:39.058Z,98472.23
2019-03-28T23:54:11.624Z,98473.16
2019-03-28T23:56:43.722Z,98475.38
2019-03-28T23:59:15.909Z,98472.36
